Hourly Reports from 6 nearest airdromes.

 

EGHI - Southampton Wx C, United Kingdom
Distance from station: NNW 4mi, 7km
Updated: Sun, 21-Jul-2019 22:20 BST
NOT Current
Few Clouds
Few Clouds
 Wind from S
Wind: S 8 mph , 13 km/h
Temperature: 16°C
Dew Point: 13°C
Humidity: 83%
Barometer: 1022 hPa
Clouds: Few Clouds
Visibility: 6 miles , 10 km
Cloud details: Few Clouds 366 m
2019/07/21 21:20 EGHI 212120Z 19007KT 160V220 9999 FEW012 16/13 Q1022
EGVP - Middle Wallop, United Kingdom
Distance from station: NW 20mi, 32km
Updated: Mon, 22-Jul-2019 01:50 BST
Overcast
Overcast
 Wind from SSW
Wind: SSW 10 mph , 17 km/h
Temperature: 17°C
Dew Point: 15°C
Humidity: 88%
Barometer: 1021 hPa
Clouds: Overcast
Visibility: 6 miles , 10 km
Cloud details: Overcast 335 m
2019/07/22 00:50 EGVP 220050Z AUTO 20009KT 9999 // OVC011/// 17/15 Q1021
 
EGHH - Bournemouth Airp, United Kingdom
Distance from station: WSW 25mi, 40km
Updated: Sun, 21-Jul-2019 23:50 BST
NOT Current
Overcast
Overcast
 Wind from SW
Wind: SW 8 mph , 13 km/h
Temperature: 18°C
Dew Point: 16°C
Humidity: 88%
Barometer: 1022 hPa
Clouds: Overcast
Visibility: 6 miles , 10 km
Cloud details: Overcast 305 m
2019/07/21 22:50 EGHH 212250Z 22007KT 9999 OVC010 18/16 Q1022
EGDM - Boscombe Down, United Kingdom
Distance from station: NW 27mi, 43km
Updated: Mon, 22-Jul-2019 01:50 BST
Partly Cloudy
Partly Cloudy
 Wind from SSW
Wind: SSW 14 mph , 22 km/h
Temperature: 16°C
Dew Point: 15°C
Humidity: 94%
Barometer: 1021 hPa
Clouds: Partly Cloudy
Visibility: 6 miles , 10 km
Cloud details: Partly Cloudy 335 m
2019/07/22 00:50 EGDM 220050Z AUTO 20012KT 9999 SCT011/// 16/15 Q1021
 
EGVO - Odiham Raf, United Kingdom
Distance from station: NNE 28mi, 44km
Updated: Mon, 22-Jul-2019 01:50 BST
Overcast
Overcast
 Wind from SSW
Wind: SSW 14 mph , 22 km/h
Temperature: 17°C
Dew Point: 15°C
Humidity: 88%
Barometer: 1021 hPa
Clouds: Overcast
Visibility: 6 miles , 10 km
Cloud details: Overcast 305 m
2019/07/22 00:50 EGVO 220050Z AUTO 21012KT 9999 OVC010/// 17/15 Q1021
EGLF - Farnborough, United Kingdom
Distance from station: NE 35mi, 57km
Updated: Mon, 22-Jul-2019 02:50 BST
Overcast
Overcast
 Wind from SW
Wind: SW 12 mph , 19 km/h
Temperature: 17°C
Dew Point: 14°C
Humidity: 83%
Barometer: 1021 hPa
Clouds: Overcast
Visibility: 6 miles , 10 km
Cloud details: Overcast 427 m
2019/07/22 01:50 EGLF 220150Z AUTO 22010KT 9999 OVC014/// 17/14 Q1021

Metar display script from Saratoga-Weather.org